Saltar al contingut principal

Dades de l'estació automàtica la Vall d'en Bas

Selector estació i data
?
?

Resum diari

22:00 TU
Dades diàries de l'estació meteorològica
Temperatura mitjana 19.8 °C
Temperatura màxima 26.7 °C 14:07 TU
Temperatura mínima 11.0 °C 3:42 TU
Humitat relativa mitjana 70%
Precipitació acumulada 0.0 mm
Ratxa màxima del vent (2 m) 19.1 km/h - 97º 14:32 TU
Irradiació solar global 25.3 MJ/m2

El tram horari està expressat en Temps Universal (TU). Cal sumar una hora en horari d'hivern i dues en horari d'estiu per passar a l'hora oficial.

la Vall d'en Bas

Metadades estació meteorològica
Municipi La Vall d'en Bas
Comarca Garrotxa
Altitud 461 m
Data alta 16.03.2000
Estat actual Operativa
Dades de període
Període
TU
TM
°C
TX
°C
TN
°C
HRM
%
PPT
mm
VVM (2 m)
km/h
DVM (2 m)
graus
VVX (2 m)
km/h
RS
W/m2
00:00 - 00:30 13.6 13.7 13.5 96 0.0 0.4 23 4.3 0
00:30 - 01:00 13.4 13.7 13.1 97 0.0 1.1 336 4.7 0
01:00 - 01:30 13.1 13.5 12.8 98 0.0 2.9 18 7.2 0
01:30 - 02:00 13.0 13.2 12.8 97 0.0 1.4 346 5.8 0
02:00 - 02:30 12.5 12.7 12.2 98 0.0 1.1 239 4.7 0
02:30 - 03:00 12.1 12.3 11.9 98 0.0 1.1 244 4.0 0
03:00 - 03:30 12.0 12.2 11.9 99 0.0 0.4 336 2.9 0
03:30 - 04:00 11.7 12.0 11.0 99 0.0 0.7 266 2.9 0
04:00 - 04:30 11.5 11.8 11.3 99 0.0 1.4 215 3.6 2
04:30 - 05:00 11.8 12.5 11.4 99 0.0 1.8 223 4.0 36
05:00 - 05:30 13.2 14.3 12.5 99 0.0 0.7 140 2.5 103
05:30 - 06:00 14.8 15.4 14.4 90 0.0 0.7 245 2.9 193
06:00 - 06:30 16.0 16.8 15.3 87 0.0 2.2 173 5.8 288
06:30 - 07:00 17.7 19.6 16.6 80 0.0 1.8 199 4.7 378
07:00 - 07:30 20.0 20.8 18.9 69 0.0 2.2 80 4.7 470
07:30 - 08:00 21.2 21.6 20.7 64 0.0 3.2 56 6.1 565
08:00 - 08:30 22.8 24.0 21.8 57 0.0 2.5 70 11.2 695
08:30 - 09:00 23.1 24.1 22.1 54 0.0 5.8 247 14.0 697
09:00 - 09:30 22.9 23.8 21.7 54 0.0 6.1 242 13.3 795
09:30 - 10:00 24.1 24.8 23.1 48 0.0 3.6 213 9.7 832
10:00 - 10:30 24.3 24.7 23.9 46 0.0 4.7 245 10.4 944
10:30 - 11:00 25.0 25.3 24.6 45 0.0 4.7 117 11.9 982
11:00 - 11:30 24.6 25.2 24.0 44 0.0 4.3 116 12.2 642
11:30 - 12:00 24.3 25.0 23.7 46 0.0 7.2 88 14.4 703
12:00 - 12:30 24.7 25.8 24.0 45 0.0 4.7 115 13.3 804
12:30 - 13:00 25.4 26.0 24.6 45 0.0 6.1 148 18.4 782
13:00 - 13:30 24.9 25.7 24.4 45 0.0 4.7 99 12.6 572
13:30 - 14:00 25.5 26.4 24.6 43 0.0 4.0 124 11.9 729
14:00 - 14:30 25.5 26.7 24.2 45 0.0 6.8 97 16.9 537
14:30 - 15:00 24.3 24.6 24.1 51 0.0 7.2 125 19.1 342
15:00 - 15:30 25.5 26.4 24.6 46 0.0 3.6 212 10.8 659
15:30 - 16:00 25.7 26.5 24.8 47 0.0 3.6 349 12.6 479
16:00 - 16:30 24.6 25.1 24.3 51 0.0 4.3 136 12.2 298
16:30 - 17:00 23.9 24.5 23.5 53 0.0 4.3 163 10.8 117
17:00 - 17:30 23.8 24.0 23.5 56 0.0 3.6 222 7.6 150
17:30 - 18:00 23.6 24.0 23.4 56 0.0 2.5 265 5.0 101
18:00 - 18:30 23.9 24.2 23.3 58 0.0 3.6 213 9.0 152
18:30 - 19:00 22.4 23.3 21.4 62 0.0 3.2 194 8.6 35
19:00 - 19:30 20.7 21.3 20.1 70 0.0 4.7 256 11.2 6
19:30 - 20:00 19.7 20.2 19.4 73 0.0 3.6 221 7.9 0
20:00 - 20:30 18.7 19.5 18.1 79 0.0 2.5 210 5.4 0
20:30 - 21:00 18.3 18.8 17.4 80 0.0 2.2 233 8.6 0
21:00 - 21:30 16.9 17.4 16.4 88 0.0 1.1 249 3.6 0
21:30 - 22:00 16.5 16.9 16.1 89 0.0 2.2 204 4.7 0
22:00 - 22:30 15.9 16.1 15.8 91 0.0 1.4 256 6.1 0

Les dades en taronja només han passat un control de qualitat automàtic. Resta pendent la seva validació definitiva.